createdAt,value
2023-04-09T00:01:43.263Z,27.02
2023-04-09T00:04:31.727Z,26.08
2023-04-09T00:07:19.730Z,27.70
2023-04-09T00:10:08.905Z,26.23
2023-04-09T00:12:57.452Z,26.30
2023-04-09T00:15:45.387Z,25.38
2023-04-09T00:18:32.940Z,26.08
2023-04-09T00:21:20.856Z,26.35
2023-04-09T00:24:08.580Z,25.75
2023-04-09T00:26:56.324Z,26.17
2023-04-09T00:29:45.191Z,25.88
2023-04-09T00:32:32.653Z,25.40
2023-04-09T00:35:20.983Z,26.13
2023-04-09T00:38:07.770Z,25.65
2023-04-09T00:40:54.919Z,27.67
2023-04-09T00:43:42.929Z,27.92
2023-04-09T00:46:32.417Z,29.25
2023-04-09T00:49:19.939Z,27.23
2023-04-09T00:52:07.296Z,27.83
2023-04-09T00:54:54.805Z,27.43
2023-04-09T00:57:42.217Z,28.23
2023-04-09T01:00:29.537Z,27.45
2023-04-09T01:03:18.725Z,28.23
2023-04-09T01:06:12.494Z,28.93
2023-04-09T01:09:05.332Z,28.30
2023-04-09T01:12:03.723Z,27.70
2023-04-09T01:14:58.117Z,28.23
2023-04-09T01:17:52.000Z,27.77
2023-04-09T01:20:44.433Z,24.35
2023-04-09T01:23:41.024Z,26.30
2023-04-09T01:26:42.830Z,26.48
2023-04-09T01:29:34.860Z,27.43
2023-04-09T01:32:23.761Z,26.98
2023-04-09T01:35:11.665Z,26.33
2023-04-09T01:37:59.605Z,27.13
2023-04-09T01:40:47.350Z,26.63
2023-04-09T01:43:35.744Z,27.03
2023-04-09T01:46:24.867Z,25.85
2023-04-09T01:49:13.302Z,26.85
2023-04-09T01:52:00.832Z,28.27
2023-04-09T01:54:48.257Z,29.45
2023-04-09T01:57:35.605Z,29.27
2023-04-09T02:00:23.021Z,28.42
2023-04-09T02:03:15.553Z,31.40
2023-04-09T02:06:08.843Z,30.67
2023-04-09T02:08:58.709Z,28.67
2023-04-09T02:11:48.566Z,34.67
2023-04-09T02:14:37.145Z,32.22
2023-04-09T02:17:25.111Z,37.80
2023-04-09T02:20:18.799Z,40.70
2023-04-09T02:23:06.184Z,40.58
2023-04-09T02:25:54.939Z,40.90
2023-04-09T02:28:41.952Z,47.78
2023-04-09T02:31:28.832Z,39.95
2023-04-09T02:34:16.191Z,42.83
2023-04-09T02:37:05.350Z,39.95
2023-04-09T02:39:53.515Z,39.55
2023-04-09T02:42:40.530Z,42.22
2023-04-09T02:45:27.540Z,39.50
2023-04-09T02:48:14.962Z,39.00
2023-04-09T02:51:06.795Z,36.75
2023-04-09T02:53:55.449Z,39.63
2023-04-09T02:56:42.700Z,40.75
2023-04-09T02:59:29.985Z,40.00
2023-04-09T03:02:17.386Z,37.67
2023-04-09T03:05:04.810Z,37.90
2023-04-09T03:07:52.180Z,37.83
2023-04-09T03:10:41.455Z,38.75
2023-04-09T03:13:29.282Z,36.38
2023-04-09T03:16:16.847Z,38.03
2023-04-09T03:19:04.435Z,34.25
2023-04-09T03:21:51.869Z,34.83
2023-04-09T03:24:43.862Z,33.50
2023-04-09T03:27:34.237Z,31.73
2023-04-09T03:30:23.368Z,31.25
2023-04-09T03:33:11.382Z,33.33
2023-04-09T03:36:24.540Z,37.30
2023-04-09T03:39:18.219Z,38.72
2023-04-09T03:42:06.476Z,36.53
2023-04-09T03:45:05.314Z,39.58
2023-04-09T03:47:58.002Z,41.20
2023-04-09T03:50:46.353Z,43.67
2023-04-09T03:53:38.016Z,43.92
2023-04-09T03:56:27.043Z,48.30
2023-04-09T03:59:15.023Z,52.17
2023-04-09T04:02:07.849Z,51.53
2023-04-09T04:04:58.426Z,48.57
2023-04-09T04:07:50.359Z,52.23
2023-04-09T04:10:46.445Z,54.88
2023-04-09T04:13:36.203Z,55.13
2023-04-09T04:16:27.315Z,55.08
2023-04-09T04:19:17.457Z,56.42
2023-04-09T04:22:08.582Z,52.72
2023-04-09T04:24:59.186Z,51.70
2023-04-09T04:27:46.574Z,49.17
2023-04-09T04:30:36.416Z,48.93
2023-04-09T04:33:27.186Z,48.13
2023-04-09T04:36:17.413Z,47.15
2023-04-09T04:39:10.625Z,47.97
2023-04-09T04:42:18.585Z,44.17
2023-04-09T04:45:08.425Z,45.90
2023-04-09T04:48:02.265Z,42.63
2023-04-09T04:50:57.122Z,46.30
2023-04-09T04:53:47.615Z,48.92
2023-04-09T04:56:35.439Z,47.97
2023-04-09T04:59:28.966Z,45.47
2023-04-09T05:02:20.161Z,44.03
2023-04-09T05:05:33.476Z,45.88
2023-04-09T05:08:21.432Z,48.35
2023-04-09T05:11:15.290Z,49.80
2023-04-09T05:14:04.880Z,50.90
2023-04-09T05:16:52.478Z,52.92
2023-04-09T05:19:44.250Z,56.38
2023-04-09T05:22:32.989Z,51.88
2023-04-09T05:25:20.876Z,53.40
2023-04-09T05:28:11.243Z,61.63
2023-04-09T05:31:00.515Z,57.47
2023-04-09T05:33:47.938Z,58.47
2023-04-09T05:36:41.386Z,58.53
2023-04-09T05:39:29.266Z,60.65
2023-04-09T05:42:19.909Z,59.63
2023-04-09T05:45:14.272Z,60.28
2023-04-09T05:48:08.436Z,63.55
2023-04-09T05:50:56.045Z,57.55
2023-04-09T05:53:46.436Z,55.92
2023-04-09T05:56:33.969Z,61.53
2023-04-09T05:59:21.589Z,60.72
2023-04-09T06:02:10.059Z,59.20
2023-04-09T06:04:57.419Z,57.22
2023-04-09T06:07:45.671Z,57.60
2023-04-09T06:10:35.042Z,57.95
2023-04-09T06:13:22.723Z,55.53
2023-04-09T06:16:10.697Z,53.58
2023-04-09T06:18:59.213Z,54.83
2023-04-09T06:21:47.250Z,59.08
2023-04-09T06:24:34.779Z,54.45
2023-04-09T06:27:23.944Z,54.85
2023-04-09T06:30:12.293Z,55.40
2023-04-09T06:32:59.952Z,54.65
2023-04-09T06:35:49.727Z,52.20
2023-04-09T06:38:37.850Z,52.08
2023-04-09T06:41:26.500Z,61.75
2023-04-09T06:44:13.739Z,55.97
2023-04-09T06:47:08.843Z,59.00
2023-04-09T06:49:56.257Z,58.85
2023-04-09T06:52:45.528Z,59.78
2023-04-09T06:55:32.644Z,60.00
2023-04-09T06:58:21.397Z,57.75
2023-04-09T07:01:08.936Z,61.50
2023-04-09T07:03:56.863Z,59.08
2023-04-09T07:06:44.778Z,59.42
2023-04-09T07:09:33.992Z,58.88
2023-04-09T07:12:28.364Z,56.85
2023-04-09T07:15:15.893Z,56.97
2023-04-09T07:18:03.976Z,56.80
2023-04-09T07:20:53.102Z,55.95
2023-04-09T07:23:41.553Z,55.50
2023-04-09T07:26:30.682Z,55.75
2023-04-09T07:29:20.727Z,55.67
2023-04-09T07:32:08.845Z,54.95
2023-04-09T07:34:57.315Z,53.65
2023-04-09T07:37:45.383Z,53.58
2023-04-09T07:40:35.384Z,51.77
2023-04-09T07:43:23.882Z,51.30
2023-04-09T07:46:11.280Z,49.30
2023-04-09T07:48:58.426Z,51.05
2023-04-09T07:51:45.442Z,48.60
2023-04-09T07:54:33.178Z,50.15
2023-04-09T07:57:20.913Z,51.85
2023-04-09T08:00:12.324Z,48.43
2023-04-09T08:03:05.043Z,48.88
2023-04-09T08:05:53.142Z,48.00
2023-04-09T08:08:41.062Z,42.78
2023-04-09T08:11:28.912Z,46.25
2023-04-09T08:14:16.947Z,44.10
2023-04-09T08:17:06.244Z,46.05
2023-04-09T08:19:53.641Z,42.88
2023-04-09T08:22:42.836Z,41.38
2023-04-09T08:25:30.698Z,42.38
2023-04-09T08:28:18.485Z,41.47
2023-04-09T08:31:06.512Z,41.63
2023-04-09T08:33:55.382Z,39.78
2023-04-09T08:36:46.472Z,40.83
2023-04-09T08:39:34.275Z,41.10
2023-04-09T08:42:24.144Z,39.45
2023-04-09T08:45:13.173Z,38.65
2023-04-09T08:48:03.680Z,41.17
2023-04-09T08:50:53.251Z,38.28
2023-04-09T08:53:41.391Z,37.17
2023-04-09T08:56:29.950Z,36.80
2023-04-09T08:59:19.525Z,39.17
2023-04-09T09:02:11.577Z,38.95
2023-04-09T09:05:01.107Z,37.55
2023-04-09T09:07:55.952Z,37.80
2023-04-09T09:10:45.099Z,35.92
2023-04-09T09:13:32.834Z,37.70
2023-04-09T09:16:21.150Z,36.25
2023-04-09T09:19:08.677Z,36.15
2023-04-09T09:21:57.856Z,36.60
2023-04-09T09:24:51.784Z,36.97
2023-04-09T09:27:41.091Z,35.90
2023-04-09T09:30:29.063Z,35.47
2023-04-09T09:33:16.790Z,33.78
2023-04-09T09:36:04.799Z,33.97
2023-04-09T09:38:56.283Z,32.97
2023-04-09T09:41:46.730Z,33.55
2023-04-09T09:44:35.072Z,32.15
2023-04-09T09:47:23.483Z,32.78
2023-04-09T09:50:11.490Z,31.90
2023-04-09T09:53:04.973Z,31.95
2023-04-09T09:55:58.536Z,32.03
2023-04-09T09:58:52.110Z,31.38
2023-04-09T10:01:41.435Z,31.27
2023-04-09T10:04:30.764Z,31.45
2023-04-09T10:07:19.526Z,31.45
2023-04-09T10:10:10.213Z,29.83
2023-04-09T10:12:59.195Z,30.00
2023-04-09T10:15:48.341Z,30.75
2023-04-09T10:18:37.017Z,30.40
2023-04-09T10:21:32.642Z,30.02
2023-04-09T10:24:20.657Z,29.40
2023-04-09T10:27:15.718Z,30.33
2023-04-09T10:30:05.184Z,29.45
2023-04-09T10:32:54.537Z,28.90
2023-04-09T10:35:42.744Z,28.23
2023-04-09T10:38:38.712Z,28.77
2023-04-09T10:41:29.654Z,28.58
2023-04-09T10:44:24.905Z,28.27
2023-04-09T10:47:13.182Z,27.08
2023-04-09T10:50:17.283Z,28.48
2023-04-09T10:53:05.619Z,27.73
2023-04-09T10:55:55.506Z,26.77
2023-04-09T10:58:42.205Z,26.85
2023-04-09T11:01:31.418Z,26.85
2023-04-09T11:04:22.749Z,25.30
2023-04-09T11:07:11.961Z,25.10
2023-04-09T11:09:59.836Z,25.63
2023-04-09T11:12:49.069Z,25.77
2023-04-09T11:15:37.826Z,26.23
2023-04-09T11:18:27.098Z,23.98
2023-04-09T11:21:14.415Z,25.40
2023-04-09T11:24:03.902Z,26.00
2023-04-09T11:26:51.419Z,25.95
2023-04-09T11:29:38.717Z,24.80
2023-04-09T11:32:31.444Z,24.10
2023-04-09T11:35:20.661Z,23.80
2023-04-09T11:38:09.648Z,22.73
2023-04-09T11:40:59.405Z,22.70
2023-04-09T11:43:47.235Z,22.33
2023-04-09T11:46:35.856Z,22.25
2023-04-09T11:49:23.940Z,21.90
2023-04-09T11:52:11.263Z,21.92
2023-04-09T11:55:01.666Z,21.65
2023-04-09T11:57:54.000Z,20.77
2023-04-09T12:00:42.364Z,21.63
2023-04-09T12:03:33.023Z,21.40
2023-04-09T12:06:22.855Z,20.95
2023-04-09T12:09:13.739Z,20.30
2023-04-09T12:12:02.218Z,18.20
2023-04-09T12:14:52.005Z,17.70
2023-04-09T12:17:38.970Z,17.30
2023-04-09T12:20:35.946Z,16.23
2023-04-09T12:23:23.779Z,15.23
2023-04-09T12:26:11.317Z,15.52
2023-04-09T12:28:59.065Z,16.38
2023-04-09T12:31:48.449Z,15.82
2023-04-09T12:34:36.147Z,14.55
2023-04-09T12:37:23.684Z,14.90
2023-04-09T12:40:13.905Z,15.07
2023-04-09T12:43:02.524Z,16.48
2023-04-09T12:45:50.279Z,14.80
2023-04-09T12:48:39.068Z,13.52
2023-04-09T12:51:26.993Z,12.98
2023-04-09T12:54:14.547Z,14.13
2023-04-09T12:57:02.352Z,13.68
2023-04-09T12:59:50.462Z,13.38
2023-04-09T13:02:38.084Z,13.25
2023-04-09T13:05:27.172Z,11.15
2023-04-09T13:08:14.584Z,11.38
2023-04-09T13:11:02.012Z,10.52
2023-04-09T13:13:49.295Z,11.30
2023-04-09T13:16:36.990Z,10.05
2023-04-09T13:19:24.802Z,10.90
2023-04-09T13:22:14.569Z,10.63
2023-04-09T13:25:01.825Z,10.07
2023-04-09T13:27:49.747Z,10.10
2023-04-09T13:30:37.627Z,9.60
2023-04-09T13:33:25.344Z,9.05
2023-04-09T13:36:12.776Z,11.13
2023-04-09T13:39:04.565Z,9.40
2023-04-09T13:41:52.715Z,9.05
2023-04-09T13:44:42.442Z,9.43
2023-04-09T13:47:30.765Z,8.60
2023-04-09T13:50:18.786Z,8.45
2023-04-09T13:53:06.930Z,8.18
2023-04-09T13:55:56.853Z,7.55
2023-04-09T13:58:44.545Z,7.38
2023-04-09T14:01:32.600Z,7.03
2023-04-09T14:04:20.784Z,7.18
2023-04-09T14:07:08.767Z,8.52
2023-04-09T14:09:56.531Z,8.45
2023-04-09T14:12:45.770Z,8.60
2023-04-09T14:15:33.465Z,7.70
2023-04-09T14:18:21.055Z,7.47
2023-04-09T14:21:10.387Z,7.10
2023-04-09T14:23:58.448Z,7.50
2023-04-09T14:26:46.404Z,7.70
2023-04-09T14:29:35.762Z,6.53
2023-04-09T14:32:23.940Z,7.60
2023-04-09T14:35:11.840Z,7.23
2023-04-09T14:37:59.501Z,7.20
2023-04-09T14:40:47.022Z,6.72
2023-04-09T14:43:34.927Z,6.60
2023-04-09T14:46:23.939Z,6.40
2023-04-09T14:49:11.333Z,7.00
2023-04-09T14:52:00.911Z,6.65
2023-04-09T14:54:48.542Z,6.75
2023-04-09T14:57:36.307Z,5.95
2023-04-09T15:00:24.128Z,6.28
2023-04-09T15:03:13.455Z,6.63
2023-04-09T15:06:01.526Z,6.45
2023-04-09T15:08:49.363Z,6.20
2023-04-09T15:11:37.197Z,6.10
2023-04-09T15:14:24.646Z,5.65
2023-04-09T15:17:12.482Z,6.95
2023-04-09T15:20:01.361Z,6.60
2023-04-09T15:22:49.775Z,5.82
2023-04-09T15:25:37.608Z,6.18
2023-04-09T15:28:25.046Z,5.97
2023-04-09T15:31:13.088Z,6.03
2023-04-09T15:34:01.036Z,5.80
2023-04-09T15:36:50.538Z,6.03
2023-04-09T15:39:38.226Z,5.80
2023-04-09T15:42:25.020Z,5.57
2023-04-09T15:45:12.462Z,4.72
2023-04-09T15:47:59.425Z,5.53
2023-04-09T15:50:46.792Z,5.63
2023-04-09T15:53:35.968Z,5.78
2023-04-09T15:56:23.585Z,5.82
2023-04-09T15:59:11.337Z,6.35
2023-04-09T16:01:58.425Z,6.00
2023-04-09T16:04:46.268Z,5.38
2023-04-09T16:07:33.729Z,5.32
2023-04-09T16:10:23.498Z,5.60
2023-04-09T16:13:11.234Z,5.07
2023-04-09T16:15:59.137Z,5.63
2023-04-09T16:18:46.100Z,5.82
2023-04-09T16:21:33.715Z,5.95
2023-04-09T16:24:21.387Z,6.25
2023-04-09T16:27:10.042Z,5.45
2023-04-09T16:29:57.729Z,4.90
2023-04-09T16:32:44.971Z,6.60
2023-04-09T16:35:32.761Z,5.97
2023-04-09T16:38:20.730Z,5.73
2023-04-09T16:41:08.182Z,5.72
2023-04-09T16:43:57.324Z,4.93
2023-04-09T16:46:44.851Z,5.70
2023-04-09T16:49:32.593Z,5.38
2023-04-09T16:52:19.909Z,6.00
2023-04-09T16:55:09.077Z,6.90
2023-04-09T16:57:57.427Z,7.75
2023-04-09T17:00:47.752Z,7.20
2023-04-09T17:03:36.105Z,7.40
2023-04-09T17:06:23.697Z,6.68
2023-04-09T17:09:11.636Z,6.18
2023-04-09T17:11:59.255Z,5.97
2023-04-09T17:14:47.006Z,6.32
2023-04-09T17:17:36.319Z,5.50
2023-04-09T17:20:25.379Z,6.00
2023-04-09T17:23:14.748Z,5.38
2023-04-09T17:26:03.330Z,5.72
2023-04-09T17:28:52.168Z,5.57
2023-04-09T17:31:40.267Z,5.60
2023-04-09T17:34:29.653Z,5.35
2023-04-09T17:37:17.475Z,5.60
2023-04-09T17:40:05.727Z,5.50
2023-04-09T17:42:53.665Z,5.30
2023-04-09T17:45:43.353Z,5.78
2023-04-09T17:48:32.025Z,5.27
2023-04-09T17:51:21.468Z,6.30
2023-04-09T17:54:08.803Z,6.63
2023-04-09T17:56:57.044Z,7.68
2023-04-09T17:59:44.208Z,9.05
2023-04-09T18:02:32.183Z,8.75
2023-04-09T18:05:20.970Z,8.07
2023-04-09T18:08:10.124Z,8.50
2023-04-09T18:11:11.336Z,7.25
2023-04-09T18:14:00.545Z,7.03
2023-04-09T18:16:48.384Z,7.63
2023-04-09T18:19:35.740Z,8.73
2023-04-09T18:22:23.830Z,8.82
2023-04-09T18:25:13.014Z,8.45
2023-04-09T18:28:00.749Z,6.95
2023-04-09T18:30:48.383Z,7.32
2023-04-09T18:33:35.416Z,6.78
2023-04-09T18:36:22.837Z,7.30
2023-04-09T18:39:10.869Z,6.57
2023-04-09T18:41:59.211Z,7.20
2023-04-09T18:44:46.955Z,6.82
2023-04-09T18:47:33.771Z,6.10
2023-04-09T18:50:21.097Z,6.45
2023-04-09T18:53:08.929Z,6.20
2023-04-09T18:55:56.649Z,5.95
2023-04-09T18:58:45.103Z,5.80
2023-04-09T19:01:32.928Z,5.60
2023-04-09T19:04:20.762Z,5.03
2023-04-09T19:07:08.324Z,5.15
2023-04-09T19:09:55.239Z,8.05
2023-04-09T19:12:48.510Z,7.17
2023-04-09T19:15:38.584Z,8.60
2023-04-09T19:18:25.488Z,13.80
2023-04-09T19:21:13.224Z,47.15
2023-04-09T19:24:01.177Z,19.85
2023-04-09T19:26:50.870Z,16.15
2023-04-09T19:29:38.162Z,7.40
2023-04-09T19:32:27.766Z,6.18
2023-04-09T19:35:14.999Z,6.77
2023-04-09T19:38:04.764Z,6.95
2023-04-09T19:40:52.892Z,7.18
2023-04-09T19:43:42.062Z,11.80
2023-04-09T19:46:29.514Z,26.73
2023-04-09T19:49:18.753Z,53.95
2023-04-09T19:52:07.088Z,61.92
2023-04-09T19:54:58.016Z,51.63
2023-04-09T19:57:46.225Z,50.03
2023-04-09T20:00:34.215Z,51.90
2023-04-09T20:03:22.959Z,36.30
2023-04-09T20:06:12.436Z,31.75
2023-04-09T20:09:01.257Z,47.38
2023-04-09T20:11:51.507Z,29.85
2023-04-09T20:14:39.552Z,18.53
2023-04-09T20:17:26.981Z,45.97
2023-04-09T20:20:15.012Z,36.60
2023-04-09T20:23:03.841Z,32.95
2023-04-09T20:25:54.851Z,18.48
2023-04-09T20:28:42.716Z,12.70
2023-04-09T20:31:31.022Z,22.00
2023-04-09T20:34:18.570Z,30.40
2023-04-09T20:37:06.815Z,19.52
2023-04-09T20:39:55.778Z,15.20
2023-04-09T20:42:43.619Z,11.32
2023-04-09T20:45:30.602Z,12.38
2023-04-09T20:48:19.296Z,8.57
2023-04-09T20:51:10.733Z,14.85
2023-04-09T20:53:58.030Z,15.63
2023-04-09T20:56:47.113Z,10.90
2023-04-09T20:59:34.826Z,13.25
2023-04-09T21:02:22.264Z,14.55
2023-04-09T21:05:21.827Z,14.00
2023-04-09T21:08:15.337Z,10.98
2023-04-09T21:11:02.404Z,13.83
2023-04-09T21:13:55.131Z,10.70
2023-04-09T21:16:43.403Z,15.25
2023-04-09T21:19:30.467Z,19.58
2023-04-09T21:22:18.124Z,20.93
2023-04-09T21:25:05.732Z,17.25
2023-04-09T21:27:53.197Z,15.52
2023-04-09T21:30:43.309Z,17.20
2023-04-09T21:33:30.987Z,14.10
2023-04-09T21:36:18.470Z,13.30
2023-04-09T21:39:06.671Z,12.40
2023-04-09T21:41:54.418Z,13.55
2023-04-09T21:44:42.128Z,11.27
2023-04-09T21:47:32.093Z,12.07
2023-04-09T21:50:19.642Z,15.57
2023-04-09T21:53:08.215Z,14.73
2023-04-09T21:55:55.933Z,17.90
2023-04-09T21:58:43.052Z,16.67
2023-04-09T22:01:31.658Z,17.85
2023-04-09T22:04:21.337Z,21.50
2023-04-09T22:07:09.225Z,21.33
2023-04-09T22:09:58.101Z,24.48
2023-04-09T22:12:46.232Z,22.40
2023-04-09T22:15:33.518Z,26.30
2023-04-09T22:18:21.498Z,27.33
2023-04-09T22:21:15.889Z,20.50
2023-04-09T22:24:03.923Z,16.40
2023-04-09T22:26:51.999Z,15.40
2023-04-09T22:29:39.287Z,15.07
2023-04-09T22:32:27.562Z,13.30
2023-04-09T22:35:18.453Z,14.10
2023-04-09T22:38:07.172Z,13.20
2023-04-09T22:40:55.339Z,13.07
2023-04-09T22:43:42.964Z,11.93
2023-04-09T22:46:31.021Z,12.00
2023-04-09T22:49:18.645Z,11.95
2023-04-09T22:52:06.782Z,12.80
2023-04-09T22:54:55.645Z,11.70
2023-04-09T22:57:44.406Z,11.75
2023-04-09T23:00:32.458Z,11.90
2023-04-09T23:03:20.254Z,12.20
2023-04-09T23:06:08.313Z,11.40
2023-04-09T23:08:56.125Z,11.68
2023-04-09T23:11:45.626Z,11.70
2023-04-09T23:14:33.262Z,11.50
2023-04-09T23:17:22.476Z,11.68
2023-04-09T23:20:11.494Z,11.90
2023-04-09T23:22:59.048Z,13.23
2023-04-09T23:25:46.707Z,12.82
2023-04-09T23:28:35.188Z,10.98
2023-04-09T23:31:23.112Z,11.05
2023-04-09T23:34:11.019Z,11.30
2023-04-09T23:36:58.737Z,10.97
2023-04-09T23:39:47.915Z,11.10
2023-04-09T23:42:35.738Z,11.73
2023-04-09T23:45:24.907Z,11.40
2023-04-09T23:48:13.466Z,11.98
2023-04-09T23:51:00.487Z,10.93
2023-04-09T23:53:48.290Z,10.75
2023-04-09T23:56:36.334Z,10.60
2023-04-09T23:59:24.063Z,10.93
